Aeroporto :
LOGIN :

Iscrizione | Disclaimer

   EN    FR    IT 

 










Sommario :    VFR   VFR Marginale   IFR   IFR Intensivo   IFR Molto Intensivo
Visibilità : 
Base nubi : 
>= 8 km
>= 3000ft
5 / 8 km
1000 / 3000 ft
1500m / 5 km
500 / 1000 ft
800 / 1500m
200 / 500 ft
< 800m
< 200 ft
Simboli :   Temporali  Nebbia  Neve Forte  Precipitazioni Forti  Vento > 20 kt
SIGMETs :   Varie  Temporali  Ghiacco  Turbolenza  Onda orograficha  Ceneri Vulcaniche






- Altitudine del aeroporto : 41 ft


LIRE - Pratica di Mare Air Base Pomezia

ULTIMO METAR :
  • 221255Z 14011KT 9999 FEW030 17/14 Q1012 RMK FEW VIS MIN 9999 WIND THR13 13012KT WIND THR31 12011KT BLU

METARs OBSOLETI :
  • 221155Z 13011KT 9999 FEW030 17/14 Q1012 RMK FEW SCT100 VIS MIN 9999 WIND THR13 14011KT WIND THR31 12011KT BLU
  • 221055Z 13011KT 9999 FEW020 16/13 Q1012 RMK BKN SCT090 VIS MIN 9999 WIND THR13 14011KT WIND THR31 13010KT BLU

TAF TAF LIRE
Valido dal 22 a 12 ore il 22 a 21 ore UTC


221100Z 2212/2221 12013KT 9999 FEW020 SCT030
TEMPO 2214/2221 12015G25KT



MetMap, La meteo Aeronautica in un colpo d'occhio ! - Copyright ORBIFLY Dicembre 2007 - Disclaimer

ORBIFLY MET'MAP TEAM :

Programmazione e sviluppo : Alexandra Zaïnal
Concezione e sviluppo : Baudouin d'Aumeries
Co-Programmazione e sviluppo : Marc-Olivier Méhu
Supporto tecnico e logistico : Manuel Goepfert
Aiuto per la traduzione : Arnaldo La Scala

Contatto : metmap@orbifly.com




FONTI E CREDITI :

   NOAA